createdAt,value
2019-01-25T00:02:01.046Z,76.60
2019-01-25T00:04:30.760Z,83.50
2019-01-25T00:07:00.876Z,82.37
2019-01-25T00:09:30.119Z,83.20
2019-01-25T00:11:59.178Z,86.28
2019-01-25T00:14:32.984Z,86.78
2019-01-25T00:17:02.731Z,79.25
2019-01-25T00:19:32.703Z,89.25
2019-01-25T00:22:06.849Z,88.92
2019-01-25T00:24:35.854Z,84.37
2019-01-25T00:27:07.285Z,82.17
2019-01-25T00:29:37.691Z,80.05
2019-01-25T00:32:08.803Z,75.70
2019-01-25T00:34:38.502Z,78.75
2019-01-25T00:37:07.735Z,72.82
2019-01-25T00:39:37.107Z,88.37
2019-01-25T00:42:11.200Z,79.97
2019-01-25T00:44:40.928Z,80.65
2019-01-25T00:47:13.897Z,75.55
2019-01-25T00:49:44.073Z,78.45
2019-01-25T00:52:18.022Z,78.60
2019-01-25T00:54:49.039Z,77.58
2019-01-25T00:57:22.815Z,77.95
2019-01-25T00:59:53.456Z,84.17
2019-01-25T01:02:25.793Z,71.40
2019-01-25T01:04:55.245Z,80.22
2019-01-25T01:07:25.231Z,77.60
2019-01-25T01:09:56.187Z,73.83
2019-01-25T01:12:25.771Z,76.22
2019-01-25T01:14:55.794Z,76.90
2019-01-25T01:17:28.394Z,83.05
2019-01-25T01:19:59.126Z,80.40
2019-01-25T01:22:28.517Z,81.42
2019-01-25T01:24:57.559Z,70.55
2019-01-25T01:27:29.939Z,72.22
2019-01-25T01:30:00.915Z,73.02
2019-01-25T01:32:30.050Z,73.45
2019-01-25T01:34:59.370Z,76.42
2019-01-25T01:37:34.388Z,72.17
2019-01-25T01:40:07.428Z,72.75
2019-01-25T01:42:37.178Z,69.92
2019-01-25T01:45:07.327Z,78.80
2019-01-25T01:47:36.901Z,78.40
2019-01-25T01:50:07.932Z,79.82
2019-01-25T01:52:40.569Z,72.32
2019-01-25T01:55:10.867Z,70.78
2019-01-25T01:57:42.565Z,81.97
2019-01-25T02:00:17.832Z,79.27
2019-01-25T02:02:49.952Z,82.70
2019-01-25T02:05:20.883Z,75.05
2019-01-25T02:07:51.695Z,85.72
2019-01-25T02:10:29.573Z,78.78
2019-01-25T02:12:57.714Z,79.65
2019-01-25T02:15:29.967Z,83.25
2019-01-25T02:17:59.668Z,72.17
2019-01-25T02:20:30.201Z,70.80
2019-01-25T02:23:01.662Z,77.27
2019-01-25T02:25:32.794Z,86.50
2019-01-25T02:28:02.197Z,83.75
2019-01-25T02:30:32.803Z,83.42
2019-01-25T02:33:03.188Z,77.32
2019-01-25T02:35:35.577Z,78.97
2019-01-25T02:38:05.032Z,83.95
2019-01-25T02:40:39.257Z,82.85
2019-01-25T02:43:06.509Z,77.03
2019-01-25T02:45:36.297Z,88.30
2019-01-25T02:48:06.043Z,81.63
2019-01-25T02:50:38.283Z,81.92
2019-01-25T02:53:08.633Z,87.90
2019-01-25T02:55:37.826Z,81.80
2019-01-25T02:58:07.980Z,79.55
2019-01-25T03:00:37.362Z,74.65
2019-01-25T03:03:07.225Z,86.28
2019-01-25T03:05:36.722Z,81.78
2019-01-25T03:08:06.927Z,84.37
2019-01-25T03:10:36.860Z,82.30
2019-01-25T03:13:08.318Z,75.65
2019-01-25T03:15:37.968Z,83.22
2019-01-25T03:18:06.989Z,78.45
2019-01-25T03:21:05.587Z,74.85
2019-01-25T03:23:53.755Z,82.42
2019-01-25T03:26:23.288Z,75.28
2019-01-25T03:28:52.733Z,84.07
2019-01-25T03:31:22.362Z,77.27
2019-01-25T03:33:53.954Z,80.20
2019-01-25T03:36:23.990Z,79.60
2019-01-25T03:38:55.397Z,69.95
2019-01-25T03:41:25.027Z,86.30
2019-01-25T03:43:54.833Z,76.72
2019-01-25T03:46:24.076Z,75.83
2019-01-25T03:48:53.838Z,82.45
2019-01-25T03:51:24.100Z,72.00
2019-01-25T03:53:53.372Z,77.15
2019-01-25T03:56:24.202Z,75.60
2019-01-25T03:58:54.305Z,77.87
2019-01-25T04:01:24.071Z,78.50
2019-01-25T04:03:55.273Z,78.78
2019-01-25T04:06:25.444Z,76.57
2019-01-25T04:08:55.034Z,73.75
2019-01-25T04:11:25.574Z,80.47
2019-01-25T04:13:55.201Z,74.60
2019-01-25T04:16:26.975Z,77.15
2019-01-25T04:18:57.156Z,80.07
2019-01-25T04:21:26.819Z,77.22
2019-01-25T04:23:56.511Z,78.90
2019-01-25T04:26:28.015Z,83.85
2019-01-25T04:28:58.276Z,86.45
2019-01-25T04:31:27.758Z,79.87
2019-01-25T04:33:58.164Z,72.82
2019-01-25T04:36:27.542Z,93.78
2019-01-25T04:38:58.938Z,82.62
2019-01-25T04:41:28.415Z,76.97
2019-01-25T04:43:57.894Z,83.22
2019-01-25T04:46:27.661Z,73.22
2019-01-25T04:48:58.030Z,85.30
2019-01-25T04:51:28.477Z,82.90
2019-01-25T04:53:58.525Z,87.17
2019-01-25T04:56:33.334Z,87.92
2019-01-25T04:59:03.356Z,86.82
2019-01-25T05:01:33.378Z,82.57
2019-01-25T05:04:03.132Z,88.65
2019-01-25T05:06:32.847Z,79.00
2019-01-25T05:09:03.586Z,80.22
2019-01-25T05:11:33.521Z,77.60
2019-01-25T05:14:03.116Z,77.50
2019-01-25T05:16:33.024Z,76.85
2019-01-25T05:19:02.915Z,77.70
2019-01-25T05:21:33.116Z,82.10
2019-01-25T05:24:11.376Z,79.20
2019-01-25T05:26:41.192Z,74.67
2019-01-25T05:29:11.372Z,87.50
2019-01-25T05:31:43.042Z,72.50
2019-01-25T05:34:12.520Z,84.67
2019-01-25T05:36:43.647Z,79.82
2019-01-25T05:39:14.363Z,80.07
2019-01-25T05:41:45.927Z,82.17
2019-01-25T05:44:16.418Z,84.47
2019-01-25T05:46:46.100Z,77.92
2019-01-25T05:49:15.299Z,82.53
2019-01-25T05:51:44.684Z,74.40
2019-01-25T05:54:15.640Z,71.57
2019-01-25T05:56:45.750Z,59.83
2019-01-25T05:59:19.988Z,64.12
2019-01-25T06:01:49.126Z,55.12
2019-01-25T06:04:20.152Z,42.75
2019-01-25T06:06:51.453Z,49.40
2019-01-25T06:09:22.126Z,45.00
2019-01-25T06:11:51.479Z,42.85
2019-01-25T06:14:22.364Z,37.83
2019-01-25T06:19:26.914Z,50.58
2019-01-25T06:21:57.107Z,43.83
2019-01-25T06:24:27.155Z,50.70
2019-01-25T06:26:56.598Z,45.67
2019-01-25T06:29:31.392Z,50.83
2019-01-25T06:32:01.843Z,48.25
2019-01-25T06:34:31.400Z,50.80
2019-01-25T06:37:00.545Z,49.13
2019-01-25T06:39:31.941Z,56.00
2019-01-25T06:42:01.244Z,51.90
2019-01-25T06:44:32.977Z,59.65
2019-01-25T06:47:04.027Z,61.85
2019-01-25T06:49:34.443Z,58.60
2019-01-25T06:52:06.207Z,66.10
2019-01-25T06:54:36.395Z,64.53
2019-01-25T06:57:30.558Z,68.10
2019-01-25T07:00:13.793Z,71.53
2019-01-25T07:02:46.456Z,69.15
2019-01-25T07:05:17.372Z,76.35
2019-01-25T07:07:47.116Z,71.02
2019-01-25T07:10:18.381Z,72.15
2019-01-25T07:12:48.786Z,67.92
2019-01-25T07:15:24.231Z,73.22
2019-01-25T07:17:53.433Z,77.08
2019-01-25T07:20:24.209Z,77.75
2019-01-25T07:22:55.375Z,75.25
2019-01-25T07:25:25.148Z,85.10
2019-01-25T07:27:55.183Z,78.62
2019-01-25T07:30:24.877Z,83.65
2019-01-25T07:32:54.117Z,84.50
2019-01-25T07:35:23.802Z,83.37
2019-01-25T07:37:57.819Z,77.85
2019-01-25T07:40:27.707Z,79.90
2019-01-25T07:43:03.696Z,85.03
2019-01-25T07:45:33.505Z,81.32
2019-01-25T07:48:03.465Z,82.88
2019-01-25T07:50:32.810Z,73.50
2019-01-25T07:54:09.541Z,80.87
2019-01-25T08:03:05.480Z,79.35
2019-01-25T08:05:53.640Z,79.20
2019-01-25T08:08:41.887Z,81.60
2019-01-25T08:11:30.037Z,70.10
2019-01-25T08:14:20.692Z,86.72
2019-01-25T08:17:12.662Z,67.78
2019-01-25T08:20:00.721Z,61.00
2019-01-25T08:22:49.862Z,75.10
2019-01-25T08:25:38.861Z,73.05
2019-01-25T08:28:11.057Z,77.30
2019-01-25T08:30:40.912Z,71.85
2019-01-25T08:33:11.926Z,70.78
2019-01-25T08:35:44.360Z,79.95
2019-01-25T08:38:15.437Z,71.72
2019-01-25T08:40:44.765Z,74.55
2019-01-25T08:43:14.816Z,70.75
2019-01-25T08:45:44.909Z,71.95
2019-01-25T08:48:19.167Z,63.68
2019-01-25T08:50:51.557Z,80.10
2019-01-25T08:53:23.125Z,74.70
2019-01-25T08:55:54.824Z,73.42
2019-01-25T08:58:24.384Z,73.83
2019-01-25T09:00:54.117Z,73.30
2019-01-25T09:03:23.644Z,79.42
2019-01-25T09:05:53.882Z,74.03
2019-01-25T09:08:24.375Z,70.32
2019-01-25T09:10:54.023Z,80.30
2019-01-25T09:13:27.713Z,82.35
2019-01-25T09:15:57.731Z,76.57
2019-01-25T09:18:30.457Z,72.53
2019-01-25T09:21:04.784Z,74.32
2019-01-25T09:23:37.282Z,76.92
2019-01-25T09:32:20.772Z,75.78
2019-01-25T09:35:08.622Z,68.57
2019-01-25T09:37:56.062Z,74.03
2019-01-25T09:40:44.186Z,73.40
2019-01-25T09:43:32.045Z,66.92
2019-01-25T09:46:18.858Z,68.57
2019-01-25T09:49:06.074Z,74.32
2019-01-25T09:51:53.595Z,72.90
2019-01-25T09:54:48.250Z,68.75
2019-01-25T09:57:17.237Z,71.33
2019-01-25T09:59:45.955Z,63.65
2019-01-25T10:02:14.626Z,75.80
2019-01-25T10:04:46.726Z,77.35
2019-01-25T10:07:15.719Z,78.65
2019-01-25T10:09:48.026Z,83.35
2019-01-25T10:12:18.284Z,89.20
2019-01-25T10:14:47.794Z,82.80
2019-01-25T10:17:18.665Z,76.28
2019-01-25T10:19:47.294Z,84.58
2019-01-25T10:22:22.616Z,79.87
2019-01-25T10:24:52.507Z,88.27
2019-01-25T10:27:24.194Z,94.77
2019-01-25T10:29:57.097Z,86.12
2019-01-25T10:32:27.209Z,79.15
2019-01-25T10:34:58.807Z,84.75
2019-01-25T10:37:28.594Z,86.17
2019-01-25T10:39:58.080Z,89.75
2019-01-25T10:42:27.023Z,79.80
2019-01-25T10:44:55.993Z,80.67
2019-01-25T10:47:25.970Z,87.22
2019-01-25T10:49:55.223Z,71.67
2019-01-25T10:52:23.921Z,78.78
2019-01-25T10:54:52.862Z,80.20
2019-01-25T10:57:21.989Z,73.17
2019-01-25T10:59:53.881Z,79.07
2019-01-25T11:02:26.887Z,79.47
2019-01-25T11:04:56.364Z,77.85
2019-01-25T11:07:25.838Z,84.07
2019-01-25T11:09:58.077Z,81.78
2019-01-25T11:12:28.071Z,77.30
2019-01-25T11:15:02.964Z,73.45
2019-01-25T11:17:36.530Z,75.92
2019-01-25T11:20:05.722Z,75.10
2019-01-25T11:22:38.244Z,77.25
2019-01-25T11:25:12.995Z,76.28
2019-01-25T11:27:41.946Z,79.53
2019-01-25T11:30:14.917Z,72.03
2019-01-25T11:32:43.670Z,72.72
2019-01-25T11:35:12.561Z,64.63
2019-01-25T11:41:11.766Z,77.27
2019-01-25T11:44:27.719Z,78.90
2019-01-25T11:47:15.418Z,73.30
2019-01-25T11:50:03.875Z,75.40
2019-01-25T11:52:52.710Z,86.37
2019-01-25T11:55:40.450Z,84.20
2019-01-25T11:58:13.988Z,87.67
2019-01-25T12:00:46.114Z,73.28
2019-01-25T12:03:16.192Z,84.40
2019-01-25T12:05:45.902Z,84.37
2019-01-25T12:08:18.200Z,87.40
2019-01-25T12:10:49.135Z,87.63
2019-01-25T12:13:19.107Z,89.43
2019-01-25T12:15:56.646Z,90.27
2019-01-25T12:18:30.396Z,91.97
2019-01-25T12:21:00.228Z,84.63
2019-01-25T12:23:30.116Z,92.13
2019-01-25T12:25:59.544Z,109.67
2019-01-25T12:28:34.368Z,107.63
2019-01-25T12:31:04.292Z,105.00
2019-01-25T12:33:33.529Z,116.80
2019-01-25T12:36:02.911Z,126.50
2019-01-25T12:38:33.767Z,100.97
2019-01-25T12:41:04.435Z,127.43
2019-01-25T12:43:34.780Z,151.53
2019-01-25T12:46:04.028Z,137.20
2019-01-25T12:48:38.119Z,135.57
2019-01-25T12:51:19.414Z,136.53
2019-01-25T12:53:49.130Z,130.53
2019-01-25T12:56:19.197Z,120.57
2019-01-25T12:58:48.678Z,128.50
2019-01-25T13:01:27.764Z,136.70
2019-01-25T13:07:49.395Z,120.77
2019-01-25T13:10:36.706Z,107.77
2019-01-25T13:13:31.570Z,108.80
2019-01-25T13:16:15.773Z,129.37
2019-01-25T13:19:06.037Z,128.07
2019-01-25T13:21:53.198Z,120.87
2019-01-25T13:24:40.440Z,118.20
2019-01-25T13:27:11.051Z,125.37
2019-01-25T13:29:46.013Z,145.53
2019-01-25T13:32:15.949Z,141.00
2019-01-25T13:34:50.670Z,148.30
2019-01-25T13:37:19.938Z,149.73
2019-01-25T13:39:48.808Z,146.13
2019-01-25T13:42:24.659Z,156.77
2019-01-25T13:44:53.477Z,166.67
2019-01-25T13:47:22.592Z,142.27
2019-01-25T13:49:51.769Z,169.27
2019-01-25T13:52:23.328Z,173.80
2019-01-25T13:54:52.162Z,144.17
2019-01-25T14:01:08.665Z,156.13
2019-01-25T14:03:57.153Z,150.40
2019-01-25T14:06:46.761Z,143.23
2019-01-25T14:09:34.528Z,163.40
2019-01-25T14:12:21.702Z,125.80
2019-01-25T14:15:15.880Z,134.20
2019-01-25T14:18:03.104Z,138.63
2019-01-25T14:20:52.949Z,138.27
2019-01-25T14:23:42.759Z,149.17
2019-01-25T14:26:29.981Z,134.23
2019-01-25T14:28:59.192Z,149.13
2019-01-25T14:31:31.348Z,172.07
2019-01-25T14:34:00.208Z,215.00
2019-01-25T14:36:36.353Z,197.80
2019-01-25T14:39:16.572Z,178.17
2019-01-25T14:41:45.584Z,173.17
2019-01-25T14:44:27.574Z,162.70
2019-01-25T14:47:17.503Z,170.63
2019-01-25T14:50:28.555Z,152.60
2019-01-25T14:53:14.479Z,155.10
2019-01-25T14:56:00.602Z,137.17
2019-01-25T14:58:29.496Z,124.77
2019-01-25T15:00:58.887Z,112.07
2019-01-25T15:03:27.288Z,123.90
2019-01-25T15:05:57.494Z,121.03
2019-01-25T15:08:28.168Z,104.20
2019-01-25T15:10:56.208Z,102.97
2019-01-25T15:13:25.193Z,100.73
2019-01-25T15:15:53.161Z,102.40
2019-01-25T15:18:22.562Z,100.80
2019-01-25T15:20:51.347Z,91.33
2019-01-25T15:23:19.634Z,91.13
2019-01-25T15:25:47.695Z,94.63
2019-01-25T15:28:15.842Z,86.93
2019-01-25T15:30:46.162Z,97.63
2019-01-25T15:33:14.131Z,91.37
2019-01-25T15:35:44.269Z,92.07
2019-01-25T15:38:15.034Z,93.67
2019-01-25T15:40:43.573Z,87.90
2019-01-25T15:43:11.644Z,95.90
2019-01-25T15:45:40.612Z,93.43
2019-01-25T15:48:09.446Z,91.80
2019-01-25T15:50:38.377Z,89.83
2019-01-25T15:53:06.468Z,84.50
2019-01-25T15:55:36.612Z,93.43
2019-01-25T15:58:05.086Z,86.23
2019-01-25T16:00:34.186Z,91.73
2019-01-25T16:03:03.314Z,86.67
2019-01-25T16:05:31.427Z,79.37
2019-01-25T16:08:00.040Z,89.30
2019-01-25T16:10:29.084Z,84.47
2019-01-25T16:12:57.205Z,95.93
2019-01-25T16:15:28.309Z,98.00
2019-01-25T16:17:56.629Z,103.30
2019-01-25T16:20:24.918Z,102.90
2019-01-25T16:22:53.774Z,98.77
2019-01-25T16:25:26.962Z,95.00
2019-01-25T16:31:31.667Z,101.00
2019-01-25T16:34:19.275Z,99.60
2019-01-25T16:37:06.632Z,111.17
2019-01-25T16:39:54.376Z,115.23
2019-01-25T16:42:42.275Z,109.57
2019-01-25T16:45:37.266Z,129.43
2019-01-25T16:48:25.063Z,125.17
2019-01-25T16:51:13.147Z,124.57
2019-01-25T16:54:01.421Z,139.80
2019-01-25T16:56:31.353Z,134.47
2019-01-25T16:59:00.956Z,124.20
2019-01-25T17:01:33.659Z,131.47
2019-01-25T17:04:23.786Z,132.47
2019-01-25T17:07:13.882Z,147.53
2019-01-25T17:10:02.610Z,139.47
2019-01-25T17:12:52.815Z,156.28
2019-01-25T17:15:42.627Z,149.60
2019-01-25T17:21:41.578Z,140.80
2019-01-25T17:24:30.973Z,132.47
2019-01-25T17:27:01.225Z,127.53
2019-01-25T17:29:30.812Z,124.60
2019-01-25T17:32:00.746Z,139.77
2019-01-25T17:34:30.766Z,146.57
2019-01-25T17:37:00.362Z,133.60
2019-01-25T17:39:29.702Z,159.40
2019-01-25T17:41:59.833Z,137.97
2019-01-25T17:48:16.370Z,154.63
2019-01-25T17:51:04.079Z,161.87
2019-01-25T17:53:52.507Z,156.93
2019-01-25T17:56:21.453Z,142.90
2019-01-25T17:58:51.556Z,168.53
2019-01-25T18:01:45.151Z,156.03
2019-01-25T18:04:33.245Z,149.20
2019-01-25T18:07:20.842Z,189.30
2019-01-25T18:10:10.979Z,182.80
2019-01-25T18:12:58.583Z,158.47
2019-01-25T18:16:31.693Z,165.10
2019-01-25T18:19:18.930Z,178.80
2019-01-25T18:22:06.475Z,160.10
2019-01-25T18:24:54.264Z,172.63
2019-01-25T18:27:23.266Z,143.73
2019-01-25T18:29:57.821Z,130.97
2019-01-25T18:32:27.912Z,138.07
2019-01-25T18:34:56.598Z,157.57
2019-01-25T18:37:24.793Z,129.40
2019-01-25T18:39:53.208Z,146.60
2019-01-25T18:42:21.523Z,157.73
2019-01-25T18:44:56.701Z,149.87
2019-01-25T18:47:20.847Z,148.83
2019-01-25T18:49:49.055Z,146.47
2019-01-25T18:52:17.574Z,135.93
2019-01-25T18:54:46.159Z,134.70
2019-01-25T18:57:16.399Z,121.63
2019-01-25T18:59:44.928Z,127.97
2019-01-25T19:02:13.008Z,126.03
2019-01-25T19:04:41.880Z,141.73
2019-01-25T19:07:10.125Z,135.00
2019-01-25T19:09:38.586Z,121.33
2019-01-25T19:12:07.422Z,129.23
2019-01-25T19:14:36.136Z,139.63
2019-01-25T19:17:04.994Z,129.10
2019-01-25T19:19:33.392Z,143.80
2019-01-25T19:22:02.820Z,143.57
2019-01-25T19:24:31.164Z,120.67
2019-01-25T19:27:01.826Z,134.10
2019-01-25T19:29:30.495Z,138.53
2019-01-25T19:32:00.468Z,137.47
2019-01-25T19:34:29.323Z,134.93
2019-01-25T19:36:57.954Z,132.13
2019-01-25T19:39:26.919Z,137.57
2019-01-25T19:41:55.750Z,149.33
2019-01-25T19:44:24.640Z,139.57
2019-01-25T19:46:53.122Z,141.20
2019-01-25T19:49:21.863Z,158.07
2019-01-25T19:51:51.302Z,144.93
2019-01-25T19:54:20.781Z,142.13
2019-01-25T19:56:53.474Z,132.13
2019-01-25T19:59:22.405Z,139.57
2019-01-25T20:01:51.067Z,128.57
2019-01-25T20:04:23.449Z,145.90
2019-01-25T20:06:53.634Z,148.77
2019-01-25T20:09:28.883Z,133.00
2019-01-25T20:15:41.678Z,137.90
2019-01-25T20:18:28.477Z,133.20
2019-01-25T20:21:15.590Z,127.93
2019-01-25T20:24:02.399Z,121.40
2019-01-25T20:26:49.177Z,129.57
2019-01-25T20:29:39.350Z,115.20
2019-01-25T20:32:26.610Z,108.60
2019-01-25T20:35:17.871Z,112.47
2019-01-25T20:37:48.305Z,113.30
2019-01-25T20:40:16.942Z,112.03
2019-01-25T20:42:47.018Z,90.33
2019-01-25T20:45:26.873Z,93.15
2019-01-25T20:47:51.124Z,102.60
2019-01-25T20:50:22.255Z,87.60
2019-01-25T20:52:51.629Z,86.17
2019-01-25T20:55:20.188Z,81.23
2019-01-25T20:57:48.718Z,85.50
2019-01-25T21:00:29.874Z,81.00
2019-01-25T21:02:59.745Z,76.50
2019-01-25T21:05:28.266Z,84.90
2019-01-25T21:07:56.633Z,72.90
2019-01-25T21:10:26.712Z,80.10
2019-01-25T21:12:55.798Z,77.83
2019-01-25T21:15:25.332Z,73.33
2019-01-25T21:17:54.632Z,77.00
2019-01-25T21:20:28.841Z,78.10
2019-01-25T21:22:57.444Z,85.77
2019-01-25T21:25:27.399Z,71.93
2019-01-25T21:27:56.125Z,75.13
2019-01-25T21:30:28.566Z,82.87
2019-01-25T21:32:57.228Z,79.20
2019-01-25T21:35:26.093Z,78.80
2019-01-25T21:37:54.953Z,80.43
2019-01-25T21:40:25.302Z,79.90
2019-01-25T21:42:54.034Z,84.57
2019-01-25T21:45:25.131Z,74.20
2019-01-25T21:47:53.538Z,74.13
2019-01-25T21:50:24.309Z,86.70
2019-01-25T21:52:52.412Z,69.80
2019-01-25T21:55:20.906Z,82.73
2019-01-25T21:57:50.360Z,76.10
2019-01-25T22:00:21.200Z,78.40
2019-01-25T22:02:49.909Z,79.80
2019-01-25T22:08:48.647Z,79.27
2019-01-25T22:11:35.961Z,78.10
2019-01-25T22:14:22.269Z,83.67
2019-01-25T22:17:08.612Z,80.87
2019-01-25T22:19:57.524Z,94.97
2019-01-25T22:22:44.309Z,99.63
2019-01-25T22:25:31.580Z,94.43
2019-01-25T22:28:18.655Z,100.27
2019-01-25T22:30:47.564Z,100.43
2019-01-25T22:33:15.758Z,92.70
2019-01-25T22:35:43.760Z,94.33
2019-01-25T22:38:12.992Z,96.83
2019-01-25T22:40:41.341Z,99.63
2019-01-25T22:43:09.598Z,97.03
2019-01-25T22:45:38.327Z,106.50
2019-01-25T22:48:07.200Z,93.37
2019-01-25T22:50:36.578Z,104.87
2019-01-25T22:53:05.216Z,97.17
2019-01-25T22:55:33.626Z,94.07
2019-01-25T22:58:01.923Z,103.50
2019-01-25T23:00:58.226Z,95.30
2019-01-25T23:03:46.471Z,99.57
2019-01-25T23:06:41.742Z,102.33
2019-01-25T23:09:19.999Z,105.83
2019-01-25T23:11:49.123Z,107.50
2019-01-25T23:14:18.194Z,106.70
2019-01-25T23:16:46.495Z,103.10
2019-01-25T23:19:21.042Z,100.80
2019-01-25T23:21:50.761Z,97.77
2019-01-25T23:24:18.797Z,110.03
2019-01-25T23:26:47.292Z,100.87
2019-01-25T23:33:00.944Z,109.53
2019-01-25T23:35:48.350Z,99.10
2019-01-25T23:38:35.194Z,102.93
2019-01-25T23:41:23.866Z,96.13
2019-01-25T23:44:12.273Z,95.93
2019-01-25T23:46:58.755Z,122.13
2019-01-25T23:49:45.812Z,120.90
2019-01-25T23:52:31.843Z,116.90
2019-01-25T23:58:27.742Z,113.90
